Time;durP1;ratioP1;P1;durP2;ratioP2;P2;SDS_P1;SDS_P2;PMS_P1;PMS_P2;Temp;Humidity;BMP_temperature;BMP_pressure;BME280_temperature;BME280_humidity;BME280_pressure;Samples;Min_cycle;Max_cycle;Signal;HPM_P1;HPM_P2
2023/09/28 04:03:49;;;;;;;10.30;7.12;;;;;;;18.26;71.42;101062.69;5606650;31;78528;-56
2023/09/28 04:06:52;;;;;;;11.77;7.50;;;;;;;18.26;71.42;101062.69;5583647;31;34070;-56
2023/09/28 04:09:54;;;;;;;12.90;7.15;;;;;;;17.89;77.78;101062.09;5583235;31;34273;-56
2023/09/28 04:12:57;;;;;;;13.10;8.20;;;;;;;17.87;71.00;101071.63;5583410;32;34190;-57
2023/09/28 04:15:59;;;;;;;9.93;6.93;;;;;;;17.90;75.63;101071.00;5583725;32;34312;-57
2023/09/28 04:19:02;;;;;;;12.52;7.07;;;;;;;18.00;81.08;101070.72;5583403;32;33478;-57
2023/09/28 04:22:04;;;;;;;13.82;7.65;;;;;;;17.97;71.95;101080.28;5583555;32;33711;-57
2023/09/28 04:25:07;;;;;;;12.52;7.07;;;;;;;17.93;69.47;101079.31;5583746;32;33077;-57
2023/09/28 04:28:12;;;;;;;10.23;6.22;;;;;;;17.85;68.99;101069.25;5589336;31;33632;-57
2023/09/28 04:31:15;;;;;;;12.60;7.10;;;;;;;17.74;76.75;101076.81;5603274;31;33514;-58
2023/09/28 04:34:18;;;;;;;11.12;7.20;;;;;;;17.67;71.66;101078.38;5601531;31;34189;-57
2023/09/28 04:37:21;;;;;;;9.32;7.25;;;;;;;17.62;71.12;101080.09;5622313;31;33670;-57
2023/09/28 04:40:25;;;;;;;14.10;7.87;;;;;;;17.60;71.21;101074.19;5622572;31;34442;-57
2023/09/28 04:43:28;;;;;;;12.70;7.55;;;;;;;17.67;73.60;101084.59;5622684;31;34271;-57
2023/09/28 04:46:31;;;;;;;13.85;8.00;;;;;;;17.56;72.53;101085.97;5608091;31;34401;-57
2023/09/28 04:49:34;;;;;;;11.10;7.50;;;;;;;17.59;82.44;101088.06;5602034;31;33550;-57
2023/09/28 04:52:36;;;;;;;14.60;7.25;;;;;;;17.48;73.05;101086.69;5602804;31;33397;-57
2023/09/28 04:55:39;;;;;;;10.75;7.45;;;;;;;17.47;73.30;101085.91;5610943;31;34223;-58
2023/09/28 04:58:41;;;;;;;18.70;7.55;;;;;;;17.47;72.64;101087.81;5621716;31;34224;-58
2023/09/28 05:01:44;;;;;;;16.17;8.07;;;;;;;17.52;72.67;101087.69;5622162;31;33538;-58
2023/09/28 05:04:46;;;;;;;14.60;7.70;;;;;;;17.47;74.10;101091.31;5622036;31;34424;-58
2023/09/28 05:07:49;;;;;;;13.02;8.18;;;;;;;17.40;74.66;101092.88;5604605;31;34267;-58
2023/09/28 05:10:52;;;;;;;15.23;7.50;;;;;;;17.43;76.35;101093.06;5595953;31;33614;-58
2023/09/28 05:13:55;;;;;;;15.95;8.27;;;;;;;17.57;73.46;101092.97;5587105;31;33695;-58
2023/09/28 05:16:57;;;;;;;14.68;9.10;;;;;;;17.57;84.09;101095.69;5587172;31;34321;-58
2023/09/28 05:20:00;;;;;;;18.70;7.82;;;;;;;17.55;74.32;101097.94;5581567;31;33671;-58
2023/09/28 05:23:05;;;;;;;12.13;8.25;;;;;;;17.56;75.24;101102.22;5587483;31;33187;-58
2023/09/28 05:26:08;;;;;;;10.52;7.90;;;;;;;17.57;75.62;101101.91;5582086;31;33473;-58
2023/09/28 05:29:11;;;;;;;11.70;7.32;;;;;;;17.64;79.76;101109.59;5587478;31;33743;-58
2023/09/28 05:32:13;;;;;;;31.80;9.43;;;;;;;17.66;76.02;101107.41;5586167;31;33418;-58
2023/09/28 05:35:15;;;;;;;12.02;7.87;;;;;;;17.80;74.49;101113.56;5581425;31;34202;-58
2023/09/28 05:38:18;;;;;;;17.62;8.35;;;;;;;17.85;80.12;101112.66;5587046;31;33626;-58
2023/09/28 05:41:21;;;;;;;13.85;7.62;;;;;;;17.95;76.17;101117.00;5583482;31;33756;-58
2023/09/28 05:44:23;;;;;;;13.15;7.93;;;;;;;18.00;71.18;101109.50;5587889;31;33678;-58
2023/09/28 05:47:26;;;;;;;19.35;7.75;;;;;;;17.90;73.44;101101.66;5587704;31;33751;-58
2023/09/28 05:50:29;;;;;;;12.65;7.82;;;;;;;17.92;77.46;101104.06;5587119;31;33603;-58
2023/09/28 05:53:32;;;;;;;13.65;7.87;;;;;;;17.97;72.71;101106.62;5586765;31;34200;-58
2023/09/28 05:56:34;;;;;;;12.15;7.95;;;;;;;18.04;80.91;101102.34;5587959;31;33669;-58
2023/09/28 05:59:37;;;;;;;13.77;7.32;;;;;;;18.17;72.71;101110.69;5587746;31;34205;-58
2023/09/28 06:02:40;;;;;;;14.77;8.18;;;;;;;18.22;81.78;101122.22;5587424;31;33769;-58
2023/09/28 06:05:43;;;;;;;16.02;7.80;;;;;;;18.28;84.39;101123.69;5581152;31;33702;-58
2023/09/28 06:08:46;;;;;;;25.10;9.00;;;;;;;18.29;71.58;101129.91;5579815;31;34106;-57
2023/09/28 06:11:51;;;;;;;13.55;8.18;;;;;;;18.32;75.21;101134.72;5583095;31;34065;-57
2023/09/28 06:14:53;;;;;;;12.65;7.62;;;;;;;18.28;72.90;101139.19;5577850;31;35978;-56
2023/09/28 06:17:55;;;;;;;21.90;9.60;;;;;;;18.30;70.81;101136.94;5577883;31;33266;-57
2023/09/28 06:20:58;;;;;;;10.88;7.53;;;;;;;18.29;71.06;101124.47;5575086;31;33856;-57
2023/09/28 06:24:04;;;;;;;12.10;8.35;;;;;;;18.29;72.33;101122.56;5581400;31;32090;-58
2023/09/28 06:27:06;;;;;;;56.20;11.50;;;;;;;18.41;72.55;101123.88;5586544;31;33172;-57
2023/09/28 06:30:09;;;;;;;15.77;8.40;;;;;;;18.36;72.31;101134.87;5582651;31;33420;-57
2023/09/28 06:33:11;;;;;;;34.22;9.02;;;;;;;18.41;70.98;101132.00;5581519;31;33807;-56
2023/09/28 06:36:16;;;;;;;15.40;8.00;;;;;;;18.50;73.05;101138.28;5575588;31;33564;-57
2023/09/28 06:39:38;;;;;;;18.95;8.90;;;;;;;18.55;73.43;101138.16;5575671;31;34962;-58
2023/09/28 06:42:41;;;;;;;20.17;8.80;;;;;;;18.51;71.87;101139.91;5572598;31;33562;-56
2023/09/28 06:45:45;;;;;;;21.10;8.77;;;;;;;18.57;72.44;101135.09;5577190;31;34120;-57
2023/09/28 06:48:49;;;;;;;21.73;8.68;;;;;;;18.64;77.67;101138.97;5582621;31;33668;-57
2023/09/28 06:51:53;;;;;;;14.45;8.02;;;;;;;18.68;73.54;101139.94;5588288;31;33642;-57
2023/09/28 06:54:55;;;;;;;15.30;8.23;;;;;;;18.80;73.46;101135.81;5586870;31;33998;-58
2023/09/28 06:57:58;;;;;;;24.87;8.80;;;;;;;18.91;73.32;101142.56;5581428;31;33886;-57
2023/09/28 07:01:00;;;;;;;12.65;7.20;;;;;;;19.03;69.80;101150.88;5586561;31;33621;-57
2023/09/28 07:04:03;;;;;;;21.00;8.82;;;;;;;19.12;67.41;101148.19;5581248;31;33792;-57
2023/09/28 07:07:05;;;;;;;13.88;8.20;;;;;;;19.11;67.49;101139.22;5580616;31;33665;-57
2023/09/28 07:10:14;;;;;;;17.05;7.97;;;;;;;19.19;67.54;101146.56;5584444;31;33808;-57
2023/09/28 07:13:16;;;;;;;13.65;7.80;;;;;;;19.19;71.16;101160.16;5582733;31;33661;-57
2023/09/28 07:16:19;;;;;;;12.30;7.90;;;;;;;19.30;72.58;101157.12;5581235;31;33585;-57
2023/09/28 07:19:22;;;;;;;14.38;8.52;;;;;;;19.40;67.99;101160.34;5592152;31;33711;-58
2023/09/28 07:22:24;;;;;;;13.25;7.95;;;;;;;19.47;70.60;101168.00;5582388;31;34222;-58
2023/09/28 07:25:26;;;;;;;16.92;8.27;;;;;;;19.57;69.38;101170.41;5585170;31;33563;-58
2023/09/28 07:28:29;;;;;;;11.63;7.72;;;;;;;19.73;76.79;101164.47;5585191;31;33546;-58
2023/09/28 07:31:32;;;;;;;12.82;7.78;;;;;;;19.82;67.36;101163.34;5586751;31;33732;-58
2023/09/28 07:34:34;;;;;;;14.75;8.30;;;;;;;19.85;73.41;101162.69;5578779;31;33728;-58
2023/09/28 07:37:42;;;;;;;10.15;7.82;;;;;;;19.86;66.74;101158.84;5585818;31;33687;-58
2023/09/28 07:40:44;;;;;;;13.88;7.20;;;;;;;19.98;76.37;101162.84;5587019;31;34329;-58
2023/09/28 07:43:49;;;;;;;14.65;7.97;;;;;;;19.97;66.97;101159.31;5582771;31;34330;-58
2023/09/28 07:46:54;;;;;;;13.15;7.95;;;;;;;19.95;67.12;101170.50;5579663;31;34292;-58
2023/09/28 07:49:56;;;;;;;10.98;7.20;;;;;;;20.04;66.22;101162.34;5580865;31;33744;-58
2023/09/28 07:52:59;;;;;;;19.85;8.70;;;;;;;20.06;73.68;101170.97;5579855;31;33579;-58
2023/09/28 07:56:01;;;;;;;15.85;8.02;;;;;;;20.13;65.10;101174.00;5586737;31;33508;-58
2023/09/28 07:59:04;;;;;;;14.02;8.38;;;;;;;20.17;63.48;101161.34;5586436;31;33146;-58
2023/09/28 08:02:09;;;;;;;11.93;7.55;;;;;;;20.10;64.56;101161.03;5582524;31;33589;-58
2023/09/28 08:05:13;;;;;;;14.20;7.90;;;;;;;20.13;67.32;101167.72;5579221;31;34279;-58
2023/09/28 08:08:15;;;;;;;16.62;9.07;;;;;;;20.07;66.15;101158.97;5581161;31;32383;-58
2023/09/28 08:11:20;;;;;;;12.27;7.80;;;;;;;20.12;65.26;101160.69;5574734;31;34881;-58
2023/09/28 08:14:22;;;;;;;14.75;8.23;;;;;;;20.23;66.94;101161.97;5585499;31;34340;-58
2023/09/28 08:17:25;;;;;;;14.95;8.85;;;;;;;20.28;66.72;101163.69;5577585;31;34870;-58
2023/09/28 08:20:27;;;;;;;16.20;8.32;;;;;;;20.39;67.68;101159.47;5586056;31;34366;-58
2023/09/28 08:23:33;;;;;;;18.05;9.05;;;;;;;20.38;64.98;101169.56;5580350;31;33665;-58
2023/09/28 08:26:36;;;;;;;16.02;8.38;;;;;;;20.44;62.49;101162.03;5571924;31;33723;-58
2023/09/28 08:29:38;;;;;;;15.27;8.13;;;;;;;20.50;65.60;101157.19;5574870;31;33619;-57
2023/09/28 08:32:41;;;;;;;15.55;8.57;;;;;;;20.45;62.37;101163.59;5575759;31;33579;-57
2023/09/28 08:35:48;;;;;;;13.15;8.43;;;;;;;20.50;67.36;101160.72;5582730;31;33370;-58
2023/09/28 08:38:51;;;;;;;16.17;8.88;;;;;;;20.56;64.38;101154.00;5582558;31;34073;-57
2023/09/28 08:41:55;;;;;;;14.75;8.98;;;;;;;20.65;64.07;101156.66;5585510;31;33667;-57
2023/09/28 08:45:01;;;;;;;14.13;8.23;;;;;;;20.67;64.32;101154.41;5577992;31;33726;-57
2023/09/28 08:48:06;;;;;;;18.00;8.15;;;;;;;20.74;66.25;101146.50;5582164;31;33691;-57
2023/09/28 08:51:11;;;;;;;18.70;8.65;;;;;;;20.82;63.57;101147.56;5583419;31;34189;-57
2023/09/28 08:54:16;;;;;;;13.95;8.10;;;;;;;20.92;61.00;101146.38;5579898;31;33608;-57
2023/09/28 08:57:19;;;;;;;13.52;8.07;;;;;;;20.96;64.73;101156.31;5574500;31;34517;-57
2023/09/28 09:00:24;;;;;;;17.33;8.63;;;;;;;20.96;60.51;101158.22;5583135;31;33545;-57
2023/09/28 09:03:33;;;;;;;12.13;7.62;;;;;;;21.04;59.42;101149.19;5577617;31;33340;-57
2023/09/28 09:06:37;;;;;;;10.93;7.93;;;;;;;21.02;64.07;101154.16;5580092;31;32183;-57
2023/09/28 09:09:40;;;;;;;14.68;7.60;;;;;;;20.95;61.58;101149.25;5585043;31;34123;-58
2023/09/28 09:12:43;;;;;;;13.65;8.63;;;;;;;21.02;66.66;101154.97;5583109;31;33853;-58
2023/09/28 09:15:46;;;;;;;14.90;7.72;;;;;;;21.04;63.86;101147.25;5584848;31;33689;-57
2023/09/28 09:18:50;;;;;;;18.45;7.50;;;;;;;21.15;66.48;101149.56;5587447;31;33403;-56
2023/09/28 09:21:53;;;;;;;12.20;8.02;;;;;;;21.21;65.15;101148.25;5583772;31;34264;-57
2023/09/28 09:25:00;;;;;;;13.02;8.35;;;;;;;21.34;63.09;101148.00;5583372;31;34397;-58
2023/09/28 09:28:04;;;;;;;10.57;7.18;;;;;;;21.33;64.02;101143.66;5572884;31;33683;-57
2023/09/28 09:31:07;;;;;;;9.25;7.65;;;;;;;21.38;61.83;101133.69;5580812;31;33959;-57
2023/09/28 09:34:17;;;;;;;14.45;8.50;;;;;;;21.51;63.70;101140.78;5581496;31;34483;-57
2023/09/28 09:37:19;;;;;;;15.07;8.10;;;;;;;21.51;63.33;101135.34;5585284;31;33650;-58
2023/09/28 09:40:22;;;;;;;13.50;7.80;;;;;;;21.54;60.48;101132.72;5586485;31;33604;-58
2023/09/28 09:43:24;;;;;;;15.48;8.02;;;;;;;21.54;64.33;101134.66;5584539;31;32388;-58
2023/09/28 09:46:27;;;;;;;16.48;7.45;;;;;;;21.57;59.96;101123.09;5584320;31;33640;-58
2023/09/28 09:49:29;;;;;;;26.67;8.50;;;;;;;21.66;62.44;101128.47;5584590;31;33611;-58
2023/09/28 09:52:32;;;;;;;22.55;8.07;;;;;;;21.69;59.83;101125.03;5578867;31;33695;-58
2023/09/28 09:55:39;;;;;;;14.38;7.37;;;;;;;21.89;58.45;101128.87;5581953;31;33732;-58
2023/09/28 09:58:49;;;;;;;11.05;7.35;;;;;;;21.93;60.07;101127.84;5580743;31;34428;-58
2023/09/28 10:01:53;;;;;;;11.18;7.30;;;;;;;21.90;64.18;101128.50;5581488;31;34402;-58
2023/09/28 10:04:59;;;;;;;15.73;7.12;;;;;;;21.93;61.40;101122.38;5581485;31;34446;-58
2023/09/28 10:08:05;;;;;;;18.90;8.93;;;;;;;21.93;60.93;101116.13;5581986;31;33714;-58
2023/09/28 10:11:08;;;;;;;13.95;6.78;;;;;;;21.94;60.89;101125.91;5581788;31;33753;-58
2023/09/28 10:14:11;;;;;;;24.35;9.07;;;;;;;22.04;61.57;101115.31;5587223;31;33918;-58
2023/09/28 10:17:14;;;;;;;12.23;7.03;;;;;;;22.10;60.27;101106.94;5587415;31;33589;-58
2023/09/28 10:20:18;;;;;;;25.10;8.32;;;;;;;22.17;60.35;101113.44;5585756;31;33819;-58
2023/09/28 10:23:25;;;;;;;15.02;7.05;;;;;;;22.17;61.07;101109.91;5582061;31;33618;-58
2023/09/28 10:26:31;;;;;;;11.02;7.50;;;;;;;22.22;58.87;101109.69;5587675;31;33769;-58
2023/09/28 10:29:35;;;;;;;15.73;7.37;;;;;;;22.29;60.06;101109.94;5583064;31;33619;-58
2023/09/28 10:32:40;;;;;;;10.93;6.93;;;;;;;22.37;58.57;101114.47;5586623;31;33230;-59
2023/09/28 10:35:44;;;;;;;12.93;7.00;;;;;;;22.38;57.15;101109.78;5588037;31;33677;-58
2023/09/28 10:39:04;;;;;;;11.32;6.97;;;;;;;22.39;57.30;101108.69;5574640;31;33614;-58
2023/09/28 10:42:16;;;;;;;16.33;6.93;;;;;;;22.46;57.33;101109.69;5584752;31;33636;-58
2023/09/28 10:45:26;;;;;;;;;;;;;;;22.61;54.94;101107.38;5586973;31;34434;-58
2023/09/28 10:48:31;;;;;;;12.82;6.93;;;;;;;22.66;55.65;101098.97;5584764;31;34213;-58
2023/09/28 10:51:34;;;;;;;;;;;;;;;22.69;56.18;101095.53;5580266;31;35225;-57
2023/09/28 10:54:38;;;;;;;10.95;6.68;;;;;;;22.68;56.00;101094.75;5586327;31;33466;-57
2023/09/28 10:57:40;;;;;;;13.23;6.87;;;;;;;22.83;55.03;101095.94;5578661;31;34766;-57
2023/09/28 11:00:44;;;;;;;14.27;6.95;;;;;;;22.80;54.17;101096.62;5586808;31;33281;-57
2023/09/28 11:03:49;;;;;;;11.90;6.68;;;;;;;22.87;52.72;101098.78;5593819;31;34311;-57
2023/09/28 11:06:53;;;;;;;;;;;;;;;22.86;53.06;101094.47;5579314;31;34302;-57
2023/09/28 11:09:55;;;;;;;10.65;6.60;;;;;;;22.91;52.42;101094.22;5587265;31;33665;-57
2023/09/28 11:12:58;;;;;;;14.57;6.57;;;;;;;23.00;54.42;101086.69;5587851;31;34312;-58
2023/09/28 11:16:00;;;;;;;15.63;6.82;;;;;;;23.03;53.64;101077.00;5590659;31;34513;-57
2023/09/28 11:19:03;;;;;;;16.12;6.75;;;;;;;23.18;52.85;101084.50;5582370;31;33656;-56
2023/09/28 11:22:07;;;;;;;10.25;7.28;;;;;;;23.19;52.23;101072.38;5585312;31;33770;-57
2023/09/28 11:25:11;;;;;;;17.30;7.07;;;;;;;23.15;51.96;101071.50;5588892;31;33735;-57
2023/09/28 11:28:22;;;;;;;15.48;6.70;;;;;;;23.08;53.19;101069.38;5584458;31;33612;-57
2023/09/28 11:31:27;;;;;;;7.65;5.57;;;;;;;23.18;53.45;101073.53;5578292;31;33134;-57
2023/09/28 11:34:33;;;;;;;11.18;6.75;;;;;;;23.18;52.70;101068.88;5586364;31;33778;-56
2023/09/28 11:37:36;;;;;;;11.85;6.82;;;;;;;23.14;51.97;101067.94;5578772;31;33613;-57
2023/09/28 11:40:40;;;;;;;9.02;6.00;;;;;;;23.13;52.02;101060.09;5586694;31;34353;-57
2023/09/28 11:43:58;;;;;;;10.02;6.22;;;;;;;23.32;50.26;101065.72;5585556;31;34075;-57
2023/09/28 11:47:01;;;;;;;14.25;6.12;;;;;;;23.39;51.33;101059.63;5576832;31;33242;-57
2023/09/28 11:50:08;;;;;;;12.70;5.93;;;;;;;23.40;50.14;101059.28;5576036;31;33651;-57
2023/09/28 11:53:10;;;;;;;9.35;5.95;;;;;;;23.33;47.96;101059.09;5573274;31;33883;-57
2023/09/28 11:56:13;;;;;;;17.08;5.95;;;;;;;23.40;49.12;101050.28;5570442;31;33451;-57
2023/09/28 11:59:16;;;;;;;15.30;6.45;;;;;;;23.39;48.36;101046.75;5579000;31;33278;-58
2023/09/28 12:02:21;;;;;;;14.45;6.40;;;;;;;23.36;48.47;101050.19;5574728;31;33451;-58
2023/09/28 12:05:24;;;;;;;12.30;6.37;;;;;;;23.35;48.10;101047.81;5576571;31;33845;-58
2023/09/28 12:08:28;;;;;;;10.55;6.43;;;;;;;23.33;47.64;101052.84;5572490;31;34002;-58
2023/09/28 12:11:33;;;;;;;8.10;6.00;;;;;;;23.33;47.64;101042.69;5568751;31;33733;-58
2023/09/28 12:14:35;;;;;;;11.63;6.05;;;;;;;23.44;47.49;101035.56;5567036;32;34400;-58
2023/09/28 12:17:39;;;;;;;13.48;5.90;;;;;;;23.48;47.38;101040.31;5574151;31;33674;-58
2023/09/28 12:20:42;;;;;;;9.15;5.82;;;;;;;23.61;49.22;101044.59;5577447;31;33999;-58
2023/09/28 12:23:46;;;;;;;14.32;5.97;;;;;;;23.60;47.69;101042.97;5583791;31;33635;-58
2023/09/28 12:26:48;;;;;;;10.35;5.85;;;;;;;23.54;48.00;101038.91;5584942;31;33226;-57
2023/09/28 12:29:51;;;;;;;10.88;5.82;;;;;;;23.48;47.27;101029.34;5588285;31;34466;-58
2023/09/28 12:32:54;;;;;;;11.02;5.82;;;;;;;23.58;46.86;101034.34;5586981;31;34358;-58
2023/09/28 12:35:57;;;;;;;10.65;6.00;;;;;;;23.58;46.09;101035.12;5587444;31;33888;-58
2023/09/28 12:39:00;;;;;;;8.85;6.18;;;;;;;23.60;46.68;101038.28;5570980;31;33721;-58
2023/09/28 12:42:03;;;;;;;11.55;5.90;;;;;;;23.73;47.42;101036.28;5580702;31;34548;-58
2023/09/28 12:45:06;;;;;;;9.93;5.78;;;;;;;23.70;45.07;101028.78;5587234;31;33172;-58
2023/09/28 12:48:10;;;;;;;12.85;6.00;;;;;;;23.72;45.31;101026.50;5571670;31;32240;-58
2023/09/28 12:51:14;;;;;;;13.27;5.55;;;;;;;23.80;46.67;101021.97;5569637;31;33051;-58
2023/09/28 12:54:18;;;;;;;10.10;5.60;;;;;;;23.77;46.19;101026.22;5583670;31;33697;-58
2023/09/28 12:57:21;;;;;;;11.25;5.72;;;;;;;23.80;44.87;101017.31;5589420;31;33805;-58
2023/09/28 13:00:24;;;;;;;11.90;6.10;;;;;;;23.89;45.63;101014.38;5588570;31;34066;-58
2023/09/28 13:03:27;;;;;;;10.38;5.57;;;;;;;23.76;44.32;101016.44;5588031;31;33827;-58
2023/09/28 13:06:30;;;;;;;11.77;5.35;;;;;;;23.72;43.49;101007.34;5581012;31;34292;-58
2023/09/28 13:09:32;;;;;;;12.00;5.22;;;;;;;23.80;44.52;101009.09;5581167;31;34314;-58
2023/09/28 13:12:35;;;;;;;10.20;5.65;;;;;;;23.88;43.38;101005.38;5589317;31;33715;-58
2023/09/28 13:15:38;;;;;;;11.40;5.90;;;;;;;23.85;43.79;101008.84;5585163;31;33867;-58
2023/09/28 13:18:41;;;;;;;9.68;5.10;;;;;;;23.78;43.72;101003.19;5588997;31;34214;-58
2023/09/28 13:21:44;;;;;;;12.15;5.05;;;;;;;23.83;45.64;101005.63;5588803;31;33860;-58
2023/09/28 13:24:47;;;;;;;12.52;5.37;;;;;;;23.76;42.65;101000.00;5588892;31;33741;-58
2023/09/28 13:27:50;;;;;;;7.07;5.12;;;;;;;23.73;43.38;100997.97;5576936;31;34482;-58
2023/09/28 13:30:53;;;;;;;22.70;5.80;;;;;;;23.83;43.08;100991.94;5569337;32;33632;-59
2023/09/28 13:33:56;;;;;;;13.15;6.03;;;;;;;23.81;43.38;100994.28;5569367;32;33696;-58
2023/09/28 13:36:58;;;;;;;10.32;5.93;;;;;;;23.78;42.96;100988.72;5569613;32;33663;-58
2023/09/28 13:40:01;;;;;;;8.88;5.37;;;;;;;23.78;45.14;100992.25;5568406;32;34295;-58
2023/09/28 13:43:05;;;;;;;9.68;5.47;;;;;;;23.77;43.67;100982.41;5569384;32;34444;-58
2023/09/28 13:46:07;;;;;;;7.40;5.47;;;;;;;23.82;42.51;100986.84;5569552;32;33704;-58
2023/09/28 13:49:10;;;;;;;14.52;6.28;;;;;;;23.81;43.11;100983.31;5569511;32;33560;-58
2023/09/28 13:52:12;;;;;;;18.17;6.65;;;;;;;23.89;44.41;100981.53;5569515;32;33598;-59
2023/09/28 13:55:15;;;;;;;11.82;6.28;;;;;;;23.89;46.45;100979.59;5569247;32;34053;-58
2023/09/28 13:58:17;;;;;;;10.38;6.10;;;;;;;23.83;44.17;100978.25;5569293;32;34014;-59
2023/09/28 14:01:20;;;;;;;15.65;7.15;;;;;;;23.76;45.20;100980.84;5569139;32;33606;-58
2023/09/28 14:04:23;;;;;;;12.50;6.50;;;;;;;23.83;45.62;100985.69;5569229;32;33615;-58
2023/09/28 14:07:27;;;;;;;16.25;6.62;;;;;;;23.79;44.41;100974.66;5569213;32;34103;-59
2023/09/28 14:10:30;;;;;;;20.17;6.73;;;;;;;23.76;47.56;100980.06;5574357;31;33569;-58
2023/09/28 14:13:32;;;;;;;14.25;6.70;;;;;;;23.79;45.47;100973.88;5584115;31;33286;-59
2023/09/28 14:16:39;;;;;;;11.35;6.00;;;;;;;23.77;44.77;100968.72;5589094;31;34343;-59
2023/09/28 14:19:41;;;;;;;9.30;6.28;;;;;;;23.70;41.57;100963.09;5588711;31;33584;-58
2023/09/28 14:22:48;;;;;;;10.52;6.12;;;;;;;23.75;42.14;100962.03;5588659;31;33654;-58
2023/09/28 14:25:51;;;;;;;13.77;6.10;;;;;;;23.71;43.00;100963.88;5588664;31;34420;-58
2023/09/28 14:28:54;;;;;;;14.15;6.53;;;;;;;23.66;43.62;100960.25;5573513;31;34303;-58
2023/09/28 14:31:56;;;;;;;12.68;6.68;;;;;;;23.63;44.35;100955.47;5581220;31;34460;-59
2023/09/28 14:34:59;;;;;;;19.83;6.40;;;;;;;23.58;44.57;100953.03;5576585;31;33576;-58
2023/09/28 14:38:03;;;;;;;14.57;6.95;;;;;;;23.56;46.19;100944.38;5569497;32;33111;-58
2023/09/28 14:41:06;;;;;;;13.60;6.90;;;;;;;23.56;45.16;100944.38;5568884;31;33245;-58
2023/09/28 14:44:11;;;;;;;9.98;6.93;;;;;;;23.56;45.74;100949.84;5568644;31;33468;-58
2023/09/28 14:47:13;;;;;;;10.52;6.43;;;;;;;23.53;45.98;100953.28;5567039;31;33702;-58
2023/09/28 14:50:15;;;;;;;13.65;7.45;;;;;;;23.52;47.58;100948.97;5577253;31;33552;-57
2023/09/28 14:53:19;;;;;;;16.15;7.25;;;;;;;23.50;47.12;100943.03;5573758;31;33847;-58
2023/09/28 14:56:22;;;;;;;13.98;6.95;;;;;;;23.47;48.13;100948.44;5575899;31;33652;-57
2023/09/28 14:59:24;;;;;;;9.80;6.25;;;;;;;23.40;46.79;100944.38;5568853;32;33453;-58
2023/09/28 15:02:27;;;;;;;18.02;7.15;;;;;;;23.39;46.70;100948.25;5574618;31;33317;-57
2023/09/28 15:05:31;;;;;;;11.32;6.90;;;;;;;23.40;46.00;100951.78;5588732;31;33936;-57
2023/09/28 15:08:33;;;;;;;12.73;6.60;;;;;;;23.42;47.28;100944.03;5581625;31;33713;-57
2023/09/28 15:11:36;;;;;;;14.23;7.22;;;;;;;23.40;48.14;100944.38;5569160;32;33680;-57
2023/09/28 15:14:38;;;;;;;17.02;6.32;;;;;;;23.41;48.23;100947.88;5570238;31;33681;-57
2023/09/28 15:17:40;;;;;;;9.85;5.97;;;;;;;23.39;49.53;100945.53;5576172;31;33793;-57
2023/09/28 15:20:43;;;;;;;9.80;6.00;;;;;;;23.38;50.71;100949.41;5569082;32;33628;-57
2023/09/28 15:23:46;;;;;;;12.10;6.20;;;;;;;23.34;48.55;100945.78;5569088;32;33641;-57
2023/09/28 15:26:48;;;;;;;9.65;6.85;;;;;;;23.35;48.96;100949.31;5568705;32;33744;-59
2023/09/28 15:29:51;;;;;;;12.63;6.12;;;;;;;23.34;45.41;100943.03;5568995;32;34260;-57
2023/09/28 15:32:54;;;;;;;9.95;5.90;;;;;;;23.40;44.89;100944.38;5568639;32;34388;-57
2023/09/28 15:35:57;;;;;;;10.32;6.05;;;;;;;23.43;44.77;100943.66;5568875;32;33748;-57
2023/09/28 15:39:00;;;;;;;8.02;5.70;;;;;;;23.50;45.89;100945.78;5568695;32;33748;-57
2023/09/28 15:42:04;;;;;;;11.25;7.00;;;;;;;23.51;47.16;100952.84;5568840;32;33745;-57
